PWSweather.com
Personal Weather Stations
Station Observations
METEACHIET
Pas De Calais, AchietLeGrandFR

Pas De CalaisAchietLeGrandFR

Lat: 50.1302778, Lon: 2.78333333

Elevation: 406.8

Station Type: Davis VP2

http://meteo-achiet.shost.ca/index.php

High Low Average
Temperature 65.8°F18.8°C 55.0°F12.8°C 59.4°F15.2°C
Dew Point 62.1°F16.7°C 51.9°F11.1°C 55.7°F13.2°C
Winds 9.0 mph 14.5 kmh 2.0 mph 3.2 kmh 4.0 mph SW6.4 kmh SW
Wind Gusts 27.0 mph43.5 kmh 6.0 mph9.7 kmh 13.0 mph20.9 kmh
Humidity 93% 82% 88%
Pressure 29.84 in1010.5 mb 29.45 in997.3 mb -
Precipitation 0.06 in1.5 mm - -
Hour Temp Dew Point Humidity Winds Wind Gusts Pressure Precip Precip Rate Daily Precip Total
12:00 AM 57.7°F14.3°C 52.6°F11.4°C 83% 2.0 mph S3.2 kmh S 6.0 mph9.7 kmh 29.84 in1010.5 mb 0.00 in0.0 mm 0.00 in0.0 mm 0.00 in0.0 mm
12:10 AM 57.9°F14.4°C 52.8°F11.6°C 83% 3.0 mph SSW4.8 kmh SSW 8.0 mph12.9 kmh 29.84 in1010.5 mb 0.00 in0.0 mm 0.00 in0.0 mm 0.00 in0.0 mm
12:20 AM 58.1°F14.5°C 53.0°F11.7°C 83% 3.0 mph S4.8 kmh S 6.0 mph9.7 kmh 29.84 in1010.5 mb 0.00 in0.0 mm 0.00 in0.0 mm 0.00 in0.0 mm
12:30 AM 58.3°F14.6°C 52.8°F11.6°C 82% 3.0 mph S4.8 kmh S 11.0 mph17.7 kmh 29.83 in1010.2 mb 0.00 in0.0 mm 0.00 in0.0 mm 0.00 in0.0 mm
12:40 AM 58.3°F14.6°C 52.8°F11.6°C 82% 3.0 mph SE4.8 kmh SE 8.0 mph12.9 kmh 29.82 in1009.8 mb 0.00 in0.0 mm 0.00 in0.0 mm 0.00 in0.0 mm
12:50 AM 58.1°F14.5°C 52.6°F11.4°C 82% 3.0 mph S4.8 kmh S 8.0 mph12.9 kmh 29.81 in1009.5 mb 0.00 in0.0 mm 0.00 in0.0 mm 0.00 in0.0 mm
01:00 AM 58.3°F14.6°C 52.8°F11.6°C 82% 3.0 mph SSE4.8 kmh SSE 9.0 mph14.5 kmh 29.81 in1009.5 mb 0.00 in0.0 mm 0.00 in0.0 mm 0.00 in0.0 mm
01:10 AM 58.3°F14.6°C 52.8°F11.6°C 82% 3.0 mph S4.8 kmh S 11.0 mph17.7 kmh 29.80 in1009.1 mb 0.00 in0.0 mm 0.00 in0.0 mm 0.00 in0.0 mm
01:20 AM 58.1°F14.5°C 52.6°F11.4°C 82% 3.0 mph S4.8 kmh S 8.0 mph12.9 kmh 29.80 in1009.1 mb 0.00 in0.0 mm 0.00 in0.0 mm 0.00 in0.0 mm
01:30 AM 57.9°F14.4°C 52.8°F11.6°C 83% 3.0 mph SSE4.8 kmh SSE 8.0 mph12.9 kmh 29.80 in1009.1 mb 0.00 in0.0 mm 0.00 in0.0 mm 0.00 in0.0 mm
01:40 AM 57.7°F14.3°C 52.6°F11.4°C 83% 3.0 mph SSE4.8 kmh SSE 9.0 mph14.5 kmh 29.79 in1008.8 mb 0.00 in0.0 mm 0.00 in0.0 mm 0.00 in0.0 mm
01:50 AM 57.7°F14.3°C 52.6°F11.4°C 83% 3.0 mph SSE4.8 kmh SSE 9.0 mph14.5 kmh 29.79 in1008.8 mb 0.00 in0.0 mm 0.00 in0.0 mm 0.00 in0.0 mm
02:00 AM 57.7°F14.3°C 52.6°F11.4°C 83% 3.0 mph S4.8 kmh S 12.0 mph19.3 kmh 29.78 in1008.5 mb 0.00 in0.0 mm 0.00 in0.0 mm 0.00 in0.0 mm
02:10 AM 57.7°F14.3°C 52.6°F11.4°C 83% 3.0 mph SE4.8 kmh SE 10.0 mph16.1 kmh 29.77 in1008.1 mb 0.00 in0.0 mm 0.00 in0.0 mm 0.00 in0.0 mm
02:20 AM 57.6°F14.2°C 52.8°F11.6°C 84% 4.0 mph SE6.4 kmh SE 11.0 mph17.7 kmh 29.77 in1008.1 mb 0.00 in0.0 mm 0.00 in0.0 mm 0.00 in0.0 mm
02:30 AM 57.6°F14.2°C 52.8°F11.6°C 84% 4.0 mph SW6.4 kmh SW 10.0 mph16.1 kmh 29.76 in1007.8 mb 0.00 in0.0 mm 0.00 in0.0 mm 0.00 in0.0 mm
02:40 AM 57.6°F14.2°C 52.8°F11.6°C 84% 3.0 mph S4.8 kmh S 11.0 mph17.7 kmh 29.75 in1007.5 mb 0.00 in0.0 mm 0.00 in0.0 mm 0.00 in0.0 mm
02:50 AM 57.6°F14.2°C 52.8°F11.6°C 84% 3.0 mph SSE4.8 kmh SSE 10.0 mph16.1 kmh 29.75 in1007.5 mb 0.00 in0.0 mm 0.00 in0.0 mm 0.00 in0.0 mm
03:00 AM 57.4°F14.1°C 52.6°F11.4°C 84% 3.0 mph S4.8 kmh S 8.0 mph12.9 kmh 29.74 in1007.1 mb 0.00 in0.0 mm 0.00 in0.0 mm 0.00 in0.0 mm
03:10 AM 57.2°F14.0°C 52.7°F11.5°C 85% 3.0 mph SE4.8 kmh SE 9.0 mph14.5 kmh 29.73 in1006.8 mb 0.00 in0.0 mm 0.00 in0.0 mm 0.00 in0.0 mm
03:20 AM 57.0°F13.9°C 52.6°F11.4°C 85% 3.0 mph SE4.8 kmh SE 13.0 mph20.9 kmh 29.73 in1006.8 mb 0.00 in0.0 mm 0.00 in0.0 mm 0.00 in0.0 mm
03:30 AM 57.0°F13.9°C 52.6°F11.4°C 85% 3.0 mph SE4.8 kmh SE 11.0 mph17.7 kmh 29.73 in1006.8 mb 0.00 in0.0 mm 0.00 in0.0 mm 0.00 in0.0 mm
03:40 AM 57.0°F13.9°C 52.6°F11.4°C 85% 3.0 mph SE4.8 kmh SE 12.0 mph19.3 kmh 29.72 in1006.4 mb 0.00 in0.0 mm 0.00 in0.0 mm 0.00 in0.0 mm
03:50 AM 56.8°F13.8°C 52.4°F11.3°C 85% 3.0 mph SE4.8 kmh SE 8.0 mph12.9 kmh 29.72 in1006.4 mb 0.00 in0.0 mm 0.00 in0.0 mm 0.00 in0.0 mm
04:00 AM 56.8°F13.8°C 52.4°F11.3°C 85% 3.0 mph SE4.8 kmh SE 8.0 mph12.9 kmh 29.71 in1006.1 mb 0.00 in0.0 mm 0.00 in0.0 mm 0.00 in0.0 mm
04:10 AM 56.8°F13.8°C 52.4°F11.3°C 85% 3.0 mph SE4.8 kmh SE 9.0 mph14.5 kmh 29.70 in1005.8 mb 0.00 in0.0 mm 0.00 in0.0 mm 0.00 in0.0 mm
04:20 AM 56.8°F13.8°C 52.4°F11.3°C 85% 3.0 mph SSE4.8 kmh SSE 9.0 mph14.5 kmh 29.70 in1005.8 mb 0.00 in0.0 mm 0.00 in0.0 mm 0.00 in0.0 mm
04:30 AM 56.8°F13.8°C 52.4°F11.3°C 85% 3.0 mph SSE4.8 kmh SSE 9.0 mph14.5 kmh 29.69 in1005.4 mb 0.00 in0.0 mm 0.00 in0.0 mm 0.00 in0.0 mm
04:40 AM 56.8°F13.8°C 52.4°F11.3°C 85% 3.0 mph SSE4.8 kmh SSE 10.0 mph16.1 kmh 29.68 in1005.1 mb 0.00 in0.0 mm 0.00 in0.0 mm 0.00 in0.0 mm
04:50 AM 56.7°F13.7°C 52.2°F11.2°C 85% 3.0 mph SSE4.8 kmh SSE 7.0 mph11.3 kmh 29.67 in1004.7 mb 0.00 in0.0 mm 0.00 in0.0 mm 0.00 in0.0 mm
05:00 AM 56.7°F13.7°C 51.9°F11.1°C 84% 2.0 mph S3.2 kmh S 7.0 mph11.3 kmh 29.67 in1004.7 mb 0.00 in0.0 mm 0.00 in0.0 mm 0.00 in0.0 mm
05:10 AM 56.7°F13.7°C 51.9°F11.1°C 84% 2.0 mph S3.2 kmh S 7.0 mph11.3 kmh 29.67 in1004.7 mb 0.00 in0.0 mm 0.00 in0.0 mm 0.00 in0.0 mm
05:20 AM 56.7°F13.7°C 51.9°F11.1°C 84% 3.0 mph SE4.8 kmh SE 10.0 mph16.1 kmh 29.66 in1004.4 mb 0.00 in0.0 mm 0.00 in0.0 mm 0.00 in0.0 mm
05:30 AM 56.7°F13.7°C 52.2°F11.2°C 85% 4.0 mph SSE6.4 kmh SSE 11.0 mph17.7 kmh 29.65 in1004.1 mb 0.00 in0.0 mm 0.00 in0.0 mm 0.00 in0.0 mm
05:40 AM 56.7°F13.7°C 52.2°F11.2°C 85% 4.0 mph S6.4 kmh S 12.0 mph19.3 kmh 29.64 in1003.7 mb 0.00 in0.0 mm 0.00 in0.0 mm 0.00 in0.0 mm
05:50 AM 56.5°F13.6°C 52.3°F11.3°C 86% 4.0 mph SSE6.4 kmh SSE 12.0 mph19.3 kmh 29.65 in1004.1 mb 0.00 in0.0 mm 0.00 in0.0 mm 0.00 in0.0 mm
06:00 AM 56.3°F13.5°C 52.5°F11.4°C 87% 3.0 mph S4.8 kmh S 9.0 mph14.5 kmh 29.65 in1004.1 mb 0.00 in0.0 mm 0.00 in0.0 mm 0.00 in0.0 mm
06:10 AM 56.5°F13.6°C 52.7°F11.5°C 87% 4.0 mph SW6.4 kmh SW 10.0 mph16.1 kmh 29.65 in1004.1 mb 0.00 in0.0 mm 0.00 in0.0 mm 0.00 in0.0 mm
06:20 AM 56.1°F13.4°C 52.6°F11.4°C 88% 3.0 mph SSW4.8 kmh SSW 9.0 mph14.5 kmh 29.65 in1004.1 mb 0.01 in0.3 mm 0.06 in1.5 mm 0.01 in0.3 mm
06:30 AM 55.8°F13.2°C 52.6°F11.4°C 89% 4.0 mph SSE6.4 kmh SSE 10.0 mph16.1 kmh 29.64 in1003.7 mb 0.02 in0.5 mm 0.06 in1.5 mm 0.02 in0.5 mm
06:40 AM 55.4°F13.0°C 52.5°F11.4°C 90% 4.0 mph SW6.4 kmh SW 11.0 mph17.7 kmh 29.64 in1003.7 mb 0.02 in0.5 mm 0.00 in0.0 mm 0.02 in0.5 mm
06:50 AM 55.2°F12.9°C 52.6°F11.4°C 91% 3.0 mph S4.8 kmh S 9.0 mph14.5 kmh 29.62 in1003.0 mb 0.03 in0.8 mm 0.06 in1.5 mm 0.03 in0.8 mm
07:00 AM 55.2°F12.9°C 52.6°F11.4°C 91% 4.0 mph SSE6.4 kmh SSE 12.0 mph19.3 kmh 29.62 in1003.0 mb 0.03 in0.8 mm 0.00 in0.0 mm 0.03 in0.8 mm
07:10 AM 55.0°F12.8°C 52.8°F11.6°C 92% 4.0 mph S6.4 kmh S 11.0 mph17.7 kmh 29.61 in1002.7 mb 0.04 in1.0 mm 0.06 in1.5 mm 0.04 in1.0 mm
07:20 AM 55.2°F12.9°C 52.9°F11.6°C 92% 4.0 mph SSW6.4 kmh SSW 10.0 mph16.1 kmh 29.61 in1002.7 mb 0.03 in0.8 mm 0.00 in0.0 mm 0.04 in1.0 mm
07:30 AM 55.2°F12.9°C 52.9°F11.6°C 92% 4.0 mph S6.4 kmh S 16.0 mph25.7 kmh 29.61 in1002.7 mb 0.02 in0.5 mm 0.00 in0.0 mm 0.04 in1.0 mm
07:40 AM 55.6°F13.1°C 53.3°F11.8°C 92% 4.0 mph SSW6.4 kmh SSW 12.0 mph19.3 kmh 29.61 in1002.7 mb 0.02 in0.5 mm 0.00 in0.0 mm 0.04 in1.0 mm
07:50 AM 55.8°F13.2°C 53.2°F11.8°C 91% 4.0 mph SSW6.4 kmh SSW 13.0 mph20.9 kmh 29.61 in1002.7 mb 0.01 in0.3 mm 0.00 in0.0 mm 0.04 in1.0 mm
08:00 AM 55.8°F13.2°C 53.2°F11.8°C 91% 4.0 mph SW6.4 kmh SW 10.0 mph16.1 kmh 29.60 in1002.4 mb 0.01 in0.3 mm 0.00 in0.0 mm 0.04 in1.0 mm
08:10 AM 55.8°F13.2°C 53.2°F11.8°C 91% 3.0 mph SW4.8 kmh SW 9.0 mph14.5 kmh 29.60 in1002.4 mb 0.00 in0.0 mm 0.00 in0.0 mm 0.04 in1.0 mm
08:20 AM 55.9°F13.3°C 53.4°F11.9°C 91% 4.0 mph S6.4 kmh S 12.0 mph19.3 kmh 29.61 in1002.7 mb 0.00 in0.0 mm 0.00 in0.0 mm 0.04 in1.0 mm
08:30 AM 56.1°F13.4°C 53.5°F11.9°C 91% 4.0 mph SSW6.4 kmh SSW 11.0 mph17.7 kmh 29.60 in1002.4 mb 0.00 in0.0 mm 0.00 in0.0 mm 0.04 in1.0 mm
08:40 AM 56.1°F13.4°C 53.5°F11.9°C 91% 4.0 mph S6.4 kmh S 9.0 mph14.5 kmh 29.60 in1002.4 mb 0.00 in0.0 mm 0.00 in0.0 mm 0.04 in1.0 mm
08:50 AM 56.5°F13.6°C 53.9°F12.2°C 91% 3.0 mph S4.8 kmh S 8.0 mph12.9 kmh 29.60 in1002.4 mb 0.00 in0.0 mm 0.00 in0.0 mm 0.04 in1.0 mm
09:00 AM 56.7°F13.7°C 54.1°F12.3°C 91% 4.0 mph SSW6.4 kmh SSW 10.0 mph16.1 kmh 29.59 in1002.0 mb 0.00 in0.0 mm 0.00 in0.0 mm 0.04 in1.0 mm
09:10 AM 56.8°F13.8°C 54.2°F12.3°C 91% 4.0 mph S6.4 kmh S 13.0 mph20.9 kmh 29.59 in1002.0 mb 0.00 in0.0 mm 0.00 in0.0 mm 0.04 in1.0 mm
09:20 AM 57.0°F13.9°C 54.4°F12.4°C 91% 4.0 mph S6.4 kmh S 13.0 mph20.9 kmh 29.58 in1001.7 mb 0.00 in0.0 mm 0.00 in0.0 mm 0.04 in1.0 mm
09:30 AM 57.2°F14.0°C 54.6°F12.6°C 91% 5.0 mph SSE8.0 kmh SSE 14.0 mph22.5 kmh 29.58 in1001.7 mb 0.00 in0.0 mm 0.00 in0.0 mm 0.04 in1.0 mm
09:40 AM 57.4°F14.1°C 54.8°F12.7°C 91% 5.0 mph SW8.0 kmh SW 13.0 mph20.9 kmh 29.58 in1001.7 mb 0.00 in0.0 mm 0.00 in0.0 mm 0.04 in1.0 mm
09:50 AM 57.6°F14.2°C 55.0°F12.8°C 91% 4.0 mph SSW6.4 kmh SSW 11.0 mph17.7 kmh 29.57 in1001.4 mb 0.00 in0.0 mm 0.00 in0.0 mm 0.04 in1.0 mm
10:00 AM 57.7°F14.3°C 55.1°F12.8°C 91% 4.0 mph SW6.4 kmh SW 19.0 mph30.6 kmh 29.58 in1001.7 mb 0.00 in0.0 mm 0.00 in0.0 mm 0.04 in1.0 mm
10:10 AM 58.3°F14.6°C 55.7°F13.2°C 91% 5.0 mph SSW8.0 kmh SSW 15.0 mph24.1 kmh 29.58 in1001.7 mb 0.00 in0.0 mm 0.00 in0.0 mm 0.04 in1.0 mm
10:20 AM 59.0°F15.0°C 56.4°F13.6°C 91% 4.0 mph SW6.4 kmh SW 11.0 mph17.7 kmh 29.57 in1001.4 mb 0.00 in0.0 mm 0.00 in0.0 mm 0.04 in1.0 mm
10:30 AM 59.9°F15.5°C 57.0°F13.9°C 90% 5.0 mph SW8.0 kmh SW 10.0 mph16.1 kmh 29.57 in1001.4 mb 0.00 in0.0 mm 0.00 in0.0 mm 0.04 in1.0 mm
10:40 AM 60.4°F15.8°C 57.2°F14.0°C 89% 5.0 mph SW8.0 kmh SW 15.0 mph24.1 kmh 29.57 in1001.4 mb 0.00 in0.0 mm 0.00 in0.0 mm 0.04 in1.0 mm
10:50 AM 60.4°F15.8°C 57.2°F14.0°C 89% 4.0 mph SW6.4 kmh SW 14.0 mph22.5 kmh 29.57 in1001.4 mb 0.00 in0.0 mm 0.00 in0.0 mm 0.04 in1.0 mm
11:00 AM 60.3°F15.7°C 57.0°F13.9°C 89% 4.0 mph SW6.4 kmh SW 13.0 mph20.9 kmh 29.56 in1001.0 mb 0.00 in0.0 mm 0.00 in0.0 mm 0.04 in1.0 mm
11:10 AM 60.4°F15.8°C 57.2°F14.0°C 89% 4.0 mph WSW6.4 kmh WSW 10.0 mph16.1 kmh 29.56 in1001.0 mb 0.00 in0.0 mm 0.00 in0.0 mm 0.04 in1.0 mm
11:20 AM 60.6°F15.9°C 57.4°F14.1°C 89% 4.0 mph WSW6.4 kmh WSW 13.0 mph20.9 kmh 29.56 in1001.0 mb 0.00 in0.0 mm 0.00 in0.0 mm 0.04 in1.0 mm
11:30 AM 61.0°F16.1°C 57.7°F14.3°C 89% 4.0 mph SW6.4 kmh SW 12.0 mph19.3 kmh 29.56 in1001.0 mb 0.00 in0.0 mm 0.00 in0.0 mm 0.04 in1.0 mm
11:40 AM 61.3°F16.3°C 57.8°F14.3°C 88% 5.0 mph SW8.0 kmh SW 14.0 mph22.5 kmh 29.55 in1000.7 mb 0.00 in0.0 mm 0.00 in0.0 mm 0.04 in1.0 mm
11:50 AM 62.2°F16.8°C 58.6°F14.8°C 88% 4.0 mph SW6.4 kmh SW 13.0 mph20.9 kmh 29.55 in1000.7 mb 0.00 in0.0 mm 0.00 in0.0 mm 0.04 in1.0 mm
12:00 PM 63.1°F17.3°C 59.2°F15.1°C 87% 4.0 mph SW6.4 kmh SW 15.0 mph24.1 kmh 29.55 in1000.7 mb 0.00 in0.0 mm 0.00 in0.0 mm 0.04 in1.0 mm
12:10 PM 63.3°F17.4°C 59.1°F15.1°C 86% 5.0 mph SW8.0 kmh SW 15.0 mph24.1 kmh 29.55 in1000.7 mb 0.00 in0.0 mm 0.00 in0.0 mm 0.04 in1.0 mm
12:20 PM 63.1°F17.3°C 58.9°F14.9°C 86% 4.0 mph SW6.4 kmh SW 11.0 mph17.7 kmh 29.54 in1000.3 mb 0.00 in0.0 mm 0.00 in0.0 mm 0.04 in1.0 mm
12:30 PM 62.8°F17.1°C 59.2°F15.1°C 88% 5.0 mph SSW8.0 kmh SSW 16.0 mph25.7 kmh 29.54 in1000.3 mb 0.00 in0.0 mm 0.00 in0.0 mm 0.04 in1.0 mm
12:40 PM 62.1°F16.7°C 59.1°F15.1°C 90% 4.0 mph WSW6.4 kmh WSW 12.0 mph19.3 kmh 29.54 in1000.3 mb 0.00 in0.0 mm 0.00 in0.0 mm 0.04 in1.0 mm
12:50 PM 61.9°F16.6°C 59.2°F15.1°C 91% 3.0 mph SW4.8 kmh SW 10.0 mph16.1 kmh 29.54 in1000.3 mb 0.00 in0.0 mm 0.00 in0.0 mm 0.04 in1.0 mm
01:00 PM 62.1°F16.7°C 59.7°F15.4°C 92% 4.0 mph S6.4 kmh S 8.0 mph12.9 kmh 29.53 in1000.0 mb 0.00 in0.0 mm 0.00 in0.0 mm 0.04 in1.0 mm
01:10 PM 62.2°F16.8°C 59.6°F15.3°C 91% 4.0 mph SSE6.4 kmh SSE 13.0 mph20.9 kmh 29.53 in1000.0 mb 0.00 in0.0 mm 0.00 in0.0 mm 0.04 in1.0 mm
01:20 PM 61.9°F16.6°C 59.5°F15.3°C 92% 4.0 mph S6.4 kmh S 13.0 mph20.9 kmh 29.53 in1000.0 mb 0.00 in0.0 mm 0.00 in0.0 mm 0.04 in1.0 mm
01:30 PM 61.5°F16.4°C 59.2°F15.1°C 92% 4.0 mph S6.4 kmh S 9.0 mph14.5 kmh 29.52 in999.7 mb 0.00 in0.0 mm 0.00 in0.0 mm 0.04 in1.0 mm
01:40 PM 61.3°F16.3°C 59.3°F15.2°C 93% 4.0 mph SW6.4 kmh SW 12.0 mph19.3 kmh 29.52 in999.7 mb 0.00 in0.0 mm 0.00 in0.0 mm 0.04 in1.0 mm
01:50 PM 61.3°F16.3°C 59.3°F15.2°C 93% 3.0 mph S4.8 kmh S 11.0 mph17.7 kmh 29.51 in999.3 mb 0.00 in0.0 mm 0.00 in0.0 mm 0.04 in1.0 mm
02:00 PM 61.5°F16.4°C 59.5°F15.3°C 93% 3.0 mph SW4.8 kmh SW 13.0 mph20.9 kmh 29.51 in999.3 mb 0.00 in0.0 mm 0.00 in0.0 mm 0.04 in1.0 mm
02:10 PM 62.1°F16.7°C 60.0°F15.6°C 93% 3.0 mph S4.8 kmh S 10.0 mph16.1 kmh 29.51 in999.3 mb 0.00 in0.0 mm 0.00 in0.0 mm 0.04 in1.0 mm
02:20 PM 62.2°F16.8°C 60.2°F15.7°C 93% 4.0 mph SW6.4 kmh SW 12.0 mph19.3 kmh 29.50 in999.0 mb 0.00 in0.0 mm 0.00 in0.0 mm 0.04 in1.0 mm
02:30 PM 62.6°F17.0°C 60.5°F15.8°C 93% 3.0 mph WSW4.8 kmh WSW 11.0 mph17.7 kmh 29.50 in999.0 mb 0.00 in0.0 mm 0.00 in0.0 mm 0.04 in1.0 mm
02:40 PM 63.1°F17.3°C 61.1°F16.2°C 93% 3.0 mph WSW4.8 kmh WSW 14.0 mph22.5 kmh 29.49 in998.6 mb 0.00 in0.0 mm 0.00 in0.0 mm 0.04 in1.0 mm
02:50 PM 63.7°F17.6°C 61.3°F16.3°C 92% 3.0 mph WSW4.8 kmh WSW 10.0 mph16.1 kmh 29.49 in998.6 mb 0.00 in0.0 mm 0.00 in0.0 mm 0.04 in1.0 mm
03:00 PM 64.8°F18.2°C 62.1°F16.7°C 91% 3.0 mph SW4.8 kmh SW 10.0 mph16.1 kmh 29.48 in998.3 mb 0.00 in0.0 mm 0.00 in0.0 mm 0.04 in1.0 mm
03:10 PM 65.8°F18.8°C 61.9°F16.6°C 87% 4.0 mph SW6.4 kmh SW 10.0 mph16.1 kmh 29.48 in998.3 mb 0.00 in0.0 mm 0.00 in0.0 mm 0.04 in1.0 mm
03:20 PM 65.7°F18.7°C 61.4°F16.3°C 86% 4.0 mph SW6.4 kmh SW 11.0 mph17.7 kmh 29.47 in998.0 mb 0.00 in0.0 mm 0.00 in0.0 mm 0.04 in1.0 mm
03:30 PM 64.6°F18.1°C 61.3°F16.3°C 89% 5.0 mph WSW8.0 kmh WSW 13.0 mph20.9 kmh 29.47 in998.0 mb 0.01 in0.3 mm 0.06 in1.5 mm 0.05 in1.3 mm
03:40 PM 63.7°F17.6°C 61.0°F16.1°C 91% 4.0 mph SW6.4 kmh SW 16.0 mph25.7 kmh 29.47 in998.0 mb 0.01 in0.3 mm 0.00 in0.0 mm 0.05 in1.3 mm
03:50 PM 63.7°F17.6°C 61.0°F16.1°C 91% 4.0 mph SW6.4 kmh SW 14.0 mph22.5 kmh 29.46 in997.6 mb 0.01 in0.3 mm 0.00 in0.0 mm 0.05 in1.3 mm
04:00 PM 63.9°F17.7°C 61.2°F16.2°C 91% 4.0 mph SW6.4 kmh SW 11.0 mph17.7 kmh 29.46 in997.6 mb 0.01 in0.3 mm 0.00 in0.0 mm 0.05 in1.3 mm
04:10 PM 64.0°F17.8°C 61.0°F16.1°C 90% 5.0 mph SW8.0 kmh SW 13.0 mph20.9 kmh 29.46 in997.6 mb 0.01 in0.3 mm 0.00 in0.0 mm 0.05 in1.3 mm
04:20 PM 63.9°F17.7°C 60.9°F16.1°C 90% 5.0 mph WSW8.0 kmh WSW 11.0 mph17.7 kmh 29.46 in997.6 mb 0.02 in0.5 mm 0.06 in1.5 mm 0.06 in1.5 mm
04:30 PM 63.5°F17.5°C 61.1°F16.2°C 92% 3.0 mph WSW4.8 kmh WSW 8.0 mph12.9 kmh 29.46 in997.6 mb 0.01 in0.3 mm 0.00 in0.0 mm 0.06 in1.5 mm
04:40 PM 63.3°F17.4°C 61.0°F16.1°C 92% 4.0 mph WSW6.4 kmh WSW 12.0 mph19.3 kmh 29.45 in997.3 mb 0.01 in0.3 mm 0.00 in0.0 mm 0.06 in1.5 mm
04:50 PM 63.7°F17.6°C 60.7°F15.9°C 90% 4.0 mph WSW6.4 kmh WSW 13.0 mph20.9 kmh 29.45 in997.3 mb 0.01 in0.3 mm 0.00 in0.0 mm 0.06 in1.5 mm
05:00 PM 63.9°F17.7°C 60.9°F16.1°C 90% 4.0 mph SW6.4 kmh SW 13.0 mph20.9 kmh 29.45 in997.3 mb 0.01 in0.3 mm 0.00 in0.0 mm 0.06 in1.5 mm
05:10 PM 63.7°F17.6°C 60.7°F15.9°C 90% 5.0 mph WSW8.0 kmh WSW 14.0 mph22.5 kmh 29.45 in997.3 mb 0.01 in0.3 mm 0.00 in0.0 mm 0.06 in1.5 mm
05:20 PM 63.7°F17.6°C 60.4°F15.8°C 89% 7.0 mph WSW11.3 kmh WSW 16.0 mph25.7 kmh 29.45 in997.3 mb 0.00 in0.0 mm 0.00 in0.0 mm 0.06 in1.5 mm
05:30 PM 63.3°F17.4°C 60.6°F15.9°C 91% 6.0 mph WSW9.7 kmh WSW 15.0 mph24.1 kmh 29.46 in997.6 mb 0.00 in0.0 mm 0.00 in0.0 mm 0.06 in1.5 mm
05:40 PM 63.0°F17.2°C 60.6°F15.9°C 92% 5.0 mph SW8.0 kmh SW 16.0 mph25.7 kmh 29.47 in998.0 mb 0.00 in0.0 mm 0.00 in0.0 mm 0.06 in1.5 mm
05:50 PM 62.4°F16.9°C 59.4°F15.2°C 90% 6.0 mph W9.7 kmh W 16.0 mph25.7 kmh 29.47 in998.0 mb 0.00 in0.0 mm 0.00 in0.0 mm 0.06 in1.5 mm
06:00 PM 62.1°F16.7°C 58.8°F14.9°C 89% 4.0 mph WSW6.4 kmh WSW 11.0 mph17.7 kmh 29.48 in998.3 mb 0.00 in0.0 mm 0.00 in0.0 mm 0.06 in1.5 mm
06:10 PM 61.7°F16.5°C 58.1°F14.5°C 88% 4.0 mph WSW6.4 kmh WSW 12.0 mph19.3 kmh 29.48 in998.3 mb 0.00 in0.0 mm 0.00 in0.0 mm 0.06 in1.5 mm
06:20 PM 61.2°F16.2°C 56.6°F13.7°C 85% 6.0 mph W9.7 kmh W 27.0 mph43.5 kmh 29.49 in998.6 mb 0.00 in0.0 mm 0.00 in0.0 mm 0.06 in1.5 mm
06:30 PM 61.0°F16.1°C 56.4°F13.6°C 85% 6.0 mph W9.7 kmh W 16.0 mph25.7 kmh 29.49 in998.6 mb 0.00 in0.0 mm 0.00 in0.0 mm 0.06 in1.5 mm
06:40 PM 60.6°F15.9°C 56.1°F13.4°C 85% 5.0 mph WSW8.0 kmh WSW 13.0 mph20.9 kmh 29.49 in998.6 mb 0.00 in0.0 mm 0.00 in0.0 mm 0.06 in1.5 mm
06:50 PM 60.1°F15.6°C 55.9°F13.3°C 86% 5.0 mph WSW8.0 kmh WSW 17.0 mph27.4 kmh 29.49 in998.6 mb 0.00 in0.0 mm 0.00 in0.0 mm 0.06 in1.5 mm
07:00 PM 59.5°F15.3°C 56.0°F13.3°C 88% 5.0 mph WSW8.0 kmh WSW 17.0 mph27.4 kmh 29.49 in998.6 mb 0.00 in0.0 mm 0.00 in0.0 mm 0.06 in1.5 mm
07:10 PM 59.4°F15.2°C 56.1°F13.4°C 89% 6.0 mph WSW9.7 kmh WSW 16.0 mph25.7 kmh 29.50 in999.0 mb 0.00 in0.0 mm 0.00 in0.0 mm 0.06 in1.5 mm
07:20 PM 59.4°F15.2°C 55.8°F13.2°C 88% 5.0 mph W8.0 kmh W 15.0 mph24.1 kmh 29.51 in999.3 mb 0.00 in0.0 mm 0.00 in0.0 mm 0.06 in1.5 mm
07:30 PM 59.2°F15.1°C 55.9°F13.3°C 89% 5.0 mph W8.0 kmh W 13.0 mph20.9 kmh 29.51 in999.3 mb 0.00 in0.0 mm 0.00 in0.0 mm 0.06 in1.5 mm
07:40 PM 59.2°F15.1°C 55.6°F13.1°C 88% 5.0 mph WSW8.0 kmh WSW 13.0 mph20.9 kmh 29.52 in999.7 mb 0.00 in0.0 mm 0.00 in0.0 mm 0.06 in1.5 mm
07:50 PM 59.0°F15.0°C 55.4°F13.0°C 88% 6.0 mph W9.7 kmh W 19.0 mph30.6 kmh 29.53 in1000.0 mb 0.00 in0.0 mm 0.00 in0.0 mm 0.06 in1.5 mm
08:00 PM 58.8°F14.9°C 55.6°F13.1°C 89% 7.0 mph W11.3 kmh W 17.0 mph27.4 kmh 29.53 in1000.0 mb 0.00 in0.0 mm 0.00 in0.0 mm 0.06 in1.5 mm
08:10 PM 58.8°F14.9°C 55.3°F12.9°C 88% 6.0 mph WNW9.7 kmh WNW 17.0 mph27.4 kmh 29.54 in1000.3 mb 0.00 in0.0 mm 0.00 in0.0 mm 0.06 in1.5 mm
08:20 PM 59.0°F15.0°C 55.4°F13.0°C 88% 6.0 mph W9.7 kmh W 17.0 mph27.4 kmh 29.55 in1000.7 mb 0.00 in0.0 mm 0.00 in0.0 mm 0.06 in1.5 mm
08:30 PM 58.8°F14.9°C 55.3°F12.9°C 88% 6.0 mph WNW9.7 kmh WNW 16.0 mph25.7 kmh 29.56 in1001.0 mb 0.00 in0.0 mm 0.00 in0.0 mm 0.06 in1.5 mm
08:40 PM 58.8°F14.9°C 55.3°F12.9°C 88% 6.0 mph WNW9.7 kmh WNW 16.0 mph25.7 kmh 29.56 in1001.0 mb 0.00 in0.0 mm 0.00 in0.0 mm 0.06 in1.5 mm
08:50 PM 58.8°F14.9°C 55.0°F12.8°C 87% 6.0 mph WNW9.7 kmh WNW 19.0 mph30.6 kmh 29.57 in1001.4 mb 0.00 in0.0 mm 0.00 in0.0 mm 0.06 in1.5 mm
09:00 PM 59.2°F15.1°C 55.3°F12.9°C 87% 7.0 mph W11.3 kmh W 17.0 mph27.4 kmh 29.58 in1001.7 mb 0.00 in0.0 mm 0.00 in0.0 mm 0.06 in1.5 mm
09:10 PM 59.4°F15.2°C 54.8°F12.7°C 85% 7.0 mph WNW11.3 kmh WNW 18.0 mph29.0 kmh 29.59 in1002.0 mb 0.00 in0.0 mm 0.00 in0.0 mm 0.06 in1.5 mm
09:20 PM 59.4°F15.2°C 54.8°F12.7°C 85% 7.0 mph WNW11.3 kmh WNW 18.0 mph29.0 kmh 29.60 in1002.4 mb 0.00 in0.0 mm 0.00 in0.0 mm 0.06 in1.5 mm
09:30 PM 59.5°F15.3°C 54.7°F12.6°C 84% 8.0 mph WNW12.9 kmh WNW 21.0 mph33.8 kmh 29.60 in1002.4 mb 0.00 in0.0 mm 0.00 in0.0 mm 0.06 in1.5 mm
09:40 PM 59.5°F15.3°C 54.4°F12.4°C 83% 9.0 mph WNW14.5 kmh WNW 21.0 mph33.8 kmh 29.61 in1002.7 mb 0.00 in0.0 mm 0.00 in0.0 mm 0.06 in1.5 mm
09:50 PM 59.5°F15.3°C 54.4°F12.4°C 83% 8.0 mph WNW12.9 kmh WNW 19.0 mph30.6 kmh 29.62 in1003.0 mb 0.00 in0.0 mm 0.00 in0.0 mm 0.06 in1.5 mm
10:00 PM 59.5°F15.3°C 54.4°F12.4°C 83% 9.0 mph WNW14.5 kmh WNW 25.0 mph40.2 kmh 29.63 in1003.4 mb 0.00 in0.0 mm 0.00 in0.0 mm 0.06 in1.5 mm
10:10 PM 59.5°F15.3°C 54.7°F12.6°C 84% 9.0 mph WNW14.5 kmh WNW 20.0 mph32.2 kmh 29.64 in1003.7 mb 0.00 in0.0 mm 0.00 in0.0 mm 0.06 in1.5 mm
10:20 PM 59.2°F15.1°C 54.7°F12.6°C 85% 9.0 mph WNW14.5 kmh WNW 20.0 mph32.2 kmh 29.65 in1004.1 mb 0.00 in0.0 mm 0.00 in0.0 mm 0.06 in1.5 mm
10:30 PM 58.6°F14.8°C 54.8°F12.7°C 87% 8.0 mph WNW12.9 kmh WNW 17.0 mph27.4 kmh 29.66 in1004.4 mb 0.00 in0.0 mm 0.00 in0.0 mm 0.06 in1.5 mm
10:40 PM 58.8°F14.9°C 54.6°F12.6°C 86% 8.0 mph WNW12.9 kmh WNW 19.0 mph30.6 kmh 29.66 in1004.4 mb 0.00 in0.0 mm 0.00 in0.0 mm 0.06 in1.5 mm
10:50 PM 59.2°F15.1°C 54.7°F12.6°C 85% 9.0 mph WNW14.5 kmh WNW 18.0 mph29.0 kmh 29.68 in1005.1 mb 0.00 in0.0 mm 0.00 in0.0 mm 0.06 in1.5 mm
11:00 PM 59.2°F15.1°C 54.3°F12.4°C 84% 7.0 mph NW11.3 kmh NW 18.0 mph29.0 kmh 29.68 in1005.1 mb 0.00 in0.0 mm 0.00 in0.0 mm 0.06 in1.5 mm
11:10 PM 59.2°F15.1°C 54.3°F12.4°C 84% 7.0 mph WNW11.3 kmh WNW 17.0 mph27.4 kmh 29.69 in1005.4 mb 0.00 in0.0 mm 0.00 in0.0 mm 0.06 in1.5 mm
11:20 PM 59.2°F15.1°C 54.0°F12.2°C 83% 7.0 mph NW11.3 kmh NW 15.0 mph24.1 kmh 29.70 in1005.8 mb 0.00 in0.0 mm 0.00 in0.0 mm 0.06 in1.5 mm
11:30 PM 59.0°F15.0°C 54.2°F12.3°C 84% 7.0 mph WNW11.3 kmh WNW 15.0 mph24.1 kmh 29.70 in1005.8 mb 0.00 in0.0 mm 0.00 in0.0 mm 0.06 in1.5 mm
11:40 PM 59.0°F15.0°C 53.8°F12.1°C 83% 7.0 mph WNW11.3 kmh WNW 18.0 mph29.0 kmh 29.71 in1006.1 mb 0.00 in0.0 mm 0.00 in0.0 mm 0.06 in1.5 mm
11:50 PM 58.8°F14.9°C 53.7°F12.1°C 83% 7.0 mph WNW11.3 kmh WNW 16.0 mph25.7 kmh 29.72 in1006.4 mb 0.00 in0.0 mm 0.00 in0.0 mm 0.06 in1.5 mm